sensor_id;sensor_type;location;lat;lon;timestamp;P1;durP1;ratioP1;P2;durP2;ratioP2
20287;SDS011;10303;51.960;8.372;2022-07-23T00:00:31;1.73;;;1.63;;
20287;SDS011;10303;51.960;8.372;2022-07-23T00:02:57;1.93;;;1.83;;
20287;SDS011;10303;51.960;8.372;2022-07-23T00:05:23;1.97;;;1.87;;
20287;SDS011;10303;51.960;8.372;2022-07-23T00:07:49;1.97;;;1.87;;
20287;SDS011;10303;51.960;8.372;2022-07-23T00:10:15;2.03;;;1.83;;
20287;SDS011;10303;51.960;8.372;2022-07-23T00:12:41;1.90;;;1.80;;
20287;SDS011;10303;51.960;8.372;2022-07-23T00:15:07;3.00;;;1.40;;
20287;SDS011;10303;51.960;8.372;2022-07-23T00:17:34;1.83;;;1.73;;
20287;SDS011;10303;51.960;8.372;2022-07-23T00:20:00;1.83;;;1.60;;
20287;SDS011;10303;51.960;8.372;2022-07-23T00:22:27;2.13;;;2.03;;
20287;SDS011;10303;51.960;8.372;2022-07-23T00:24:54;2.37;;;2.10;;
20287;SDS011;10303;51.960;8.372;2022-07-23T00:27:21;1.70;;;1.60;;
20287;SDS011;10303;51.960;8.372;2022-07-23T00:29:48;1.73;;;1.63;;
20287;SDS011;10303;51.960;8.372;2022-07-23T00:32:14;1.73;;;1.63;;
20287;SDS011;10303;51.960;8.372;2022-07-23T00:34:41;1.83;;;1.73;;
20287;SDS011;10303;51.960;8.372;2022-07-23T00:37:08;2.47;;;1.60;;
20287;SDS011;10303;51.960;8.372;2022-07-23T00:39:34;1.50;;;1.40;;
20287;SDS011;10303;51.960;8.372;2022-07-23T00:42:00;1.80;;;1.70;;
20287;SDS011;10303;51.960;8.372;2022-07-23T00:44:27;1.63;;;1.53;;
20287;SDS011;10303;51.960;8.372;2022-07-23T00:46:55;1.80;;;1.70;;
20287;SDS011;10303;51.960;8.372;2022-07-23T00:49:25;2.97;;;2.03;;
20287;SDS011;10303;51.960;8.372;2022-07-23T00:51:53;1.77;;;1.67;;
20287;SDS011;10303;51.960;8.372;2022-07-23T00:54:21;1.90;;;1.80;;
20287;SDS011;10303;51.960;8.372;2022-07-23T00:56:50;1.80;;;1.70;;
20287;SDS011;10303;51.960;8.372;2022-07-23T00:59:16;1.87;;;1.77;;
20287;SDS011;10303;51.960;8.372;2022-07-23T01:01:42;1.83;;;1.73;;
20287;SDS011;10303;51.960;8.372;2022-07-23T01:04:14;1.80;;;1.70;;
20287;SDS011;10303;51.960;8.372;2022-07-23T01:06:41;2.07;;;1.87;;
20287;SDS011;10303;51.960;8.372;2022-07-23T01:09:10;1.57;;;1.47;;
20287;SDS011;10303;51.960;8.372;2022-07-23T01:11:37;1.97;;;1.87;;
20287;SDS011;10303;51.960;8.372;2022-07-23T01:14:09;1.83;;;1.73;;
20287;SDS011;10303;51.960;8.372;2022-07-23T01:16:38;1.93;;;1.83;;
20287;SDS011;10303;51.960;8.372;2022-07-23T01:19:05;4.40;;;1.83;;
20287;SDS011;10303;51.960;8.372;2022-07-23T01:21:34;1.73;;;1.63;;
20287;SDS011;10303;51.960;8.372;2022-07-23T01:24:03;1.87;;;1.77;;
20287;SDS011;10303;51.960;8.372;2022-07-23T01:26:32;1.97;;;1.63;;
20287;SDS011;10303;51.960;8.372;2022-07-23T01:28:58;1.50;;;1.40;;
20287;SDS011;10303;51.960;8.372;2022-07-23T01:31:25;2.23;;;1.80;;
20287;SDS011;10303;51.960;8.372;2022-07-23T01:33:52;1.87;;;1.77;;
20287;SDS011;10303;51.960;8.372;2022-07-23T01:36:18;1.90;;;1.80;;
20287;SDS011;10303;51.960;8.372;2022-07-23T01:38:44;2.23;;;2.13;;
20287;SDS011;10303;51.960;8.372;2022-07-23T01:41:10;1.87;;;1.77;;
20287;SDS011;10303;51.960;8.372;2022-07-23T01:43:37;2.60;;;1.87;;
20287;SDS011;10303;51.960;8.372;2022-07-23T01:46:03;2.00;;;1.90;;
20287;SDS011;10303;51.960;8.372;2022-07-23T01:48:35;2.43;;;2.33;;
20287;SDS011;10303;51.960;8.372;2022-07-23T01:51:36;2.17;;;1.97;;
20287;SDS011;10303;51.960;8.372;2022-07-23T01:54:22;3.20;;;2.57;;
20287;SDS011;10303;51.960;8.372;2022-07-23T01:56:48;2.43;;;2.03;;
20287;SDS011;10303;51.960;8.372;2022-07-23T01:59:14;2.33;;;2.13;;
20287;SDS011;10303;51.960;8.372;2022-07-23T02:01:40;2.63;;;2.43;;
20287;SDS011;10303;51.960;8.372;2022-07-23T02:04:06;2.83;;;2.47;;
20287;SDS011;10303;51.960;8.372;2022-07-23T02:06:32;2.37;;;2.17;;
20287;SDS011;10303;51.960;8.372;2022-07-23T02:08:58;2.30;;;2.10;;
20287;SDS011;10303;51.960;8.372;2022-07-23T02:11:24;2.30;;;2.10;;
20287;SDS011;10303;51.960;8.372;2022-07-23T02:13:52;5.33;;;3.03;;
20287;SDS011;10303;51.960;8.372;2022-07-23T02:16:20;3.43;;;2.80;;
20287;SDS011;10303;51.960;8.372;2022-07-23T02:18:46;2.67;;;2.47;;
20287;SDS011;10303;51.960;8.372;2022-07-23T02:21:12;2.83;;;2.63;;
20287;SDS011;10303;51.960;8.372;2022-07-23T02:23:38;2.70;;;2.50;;
20287;SDS011;10303;51.960;8.372;2022-07-23T02:26:05;2.67;;;2.43;;
20287;SDS011;10303;51.960;8.372;2022-07-23T02:28:32;2.37;;;2.23;;
20287;SDS011;10303;51.960;8.372;2022-07-23T02:30:57;2.83;;;2.50;;
20287;SDS011;10303;51.960;8.372;2022-07-23T02:33:23;2.60;;;2.40;;
20287;SDS011;10303;51.960;8.372;2022-07-23T02:35:49;2.60;;;2.40;;
20287;SDS011;10303;51.960;8.372;2022-07-23T02:38:18;2.50;;;2.30;;
20287;SDS011;10303;51.960;8.372;2022-07-23T02:40:45;3.07;;;2.00;;
20287;SDS011;10303;51.960;8.372;2022-07-23T02:43:10;2.57;;;2.37;;
20287;SDS011;10303;51.960;8.372;2022-07-23T02:45:37;2.40;;;2.20;;
20287;SDS011;10303;51.960;8.372;2022-07-23T02:48:03;2.30;;;2.10;;
20287;SDS011;10303;51.960;8.372;2022-07-23T02:50:30;3.43;;;2.53;;
20287;SDS011;10303;51.960;8.372;2022-07-23T02:52:57;2.43;;;2.23;;
20287;SDS011;10303;51.960;8.372;2022-07-23T02:55:24;2.67;;;2.47;;
20287;SDS011;10303;51.960;8.372;2022-07-23T02:57:51;2.73;;;2.30;;
20287;SDS011;10303;51.960;8.372;2022-07-23T03:00:17;7.00;;;2.93;;
20287;SDS011;10303;51.960;8.372;2022-07-23T03:02:43;2.57;;;2.37;;
20287;SDS011;10303;51.960;8.372;2022-07-23T03:05:09;2.60;;;2.40;;
20287;SDS011;10303;51.960;8.372;2022-07-23T03:07:37;4.13;;;2.40;;
20287;SDS011;10303;51.960;8.372;2022-07-23T03:10:04;2.93;;;2.00;;
20287;SDS011;10303;51.960;8.372;2022-07-23T03:12:30;2.47;;;2.27;;
20287;SDS011;10303;51.960;8.372;2022-07-23T03:14:56;1.93;;;1.83;;
20287;SDS011;10303;51.960;8.372;2022-07-23T03:17:22;2.07;;;1.87;;
20287;SDS011;10303;51.960;8.372;2022-07-23T03:19:47;2.60;;;2.13;;
20287;SDS011;10303;51.960;8.372;2022-07-23T03:22:13;2.40;;;2.20;;
20287;SDS011;10303;51.960;8.372;2022-07-23T03:24:39;2.97;;;2.20;;
20287;SDS011;10303;51.960;8.372;2022-07-23T03:27:24;3.17;;;2.50;;
20287;SDS011;10303;51.960;8.372;2022-07-23T03:29:54;2.13;;;1.93;;
20287;SDS011;10303;51.960;8.372;2022-07-23T03:32:23;2.77;;;2.47;;
20287;SDS011;10303;51.960;8.372;2022-07-23T03:34:50;2.40;;;2.20;;
20287;SDS011;10303;51.960;8.372;2022-07-23T03:37:17;3.63;;;2.27;;
20287;SDS011;10303;51.960;8.372;2022-07-23T03:39:45;3.67;;;2.47;;
20287;SDS011;10303;51.960;8.372;2022-07-23T03:42:11;2.20;;;2.10;;
20287;SDS011;10303;51.960;8.372;2022-07-23T03:44:37;2.37;;;2.17;;
20287;SDS011;10303;51.960;8.372;2022-07-23T03:47:04;3.40;;;2.17;;
20287;SDS011;10303;51.960;8.372;2022-07-23T03:49:31;2.50;;;2.30;;
20287;SDS011;10303;51.960;8.372;2022-07-23T03:51:58;2.30;;;2.10;;
20287;SDS011;10303;51.960;8.372;2022-07-23T03:54:24;3.13;;;2.33;;
20287;SDS011;10303;51.960;8.372;2022-07-23T03:56:51;3.27;;;1.97;;
20287;SDS011;10303;51.960;8.372;2022-07-23T03:59:17;2.90;;;2.40;;
20287;SDS011;10303;51.960;8.372;2022-07-23T04:01:43;2.47;;;2.27;;
20287;SDS011;10303;51.960;8.372;2022-07-23T04:04:10;2.93;;;2.30;;
20287;SDS011;10303;51.960;8.372;2022-07-23T04:06:39;2.60;;;2.40;;
20287;SDS011;10303;51.960;8.372;2022-07-23T04:09:05;3.33;;;3.03;;
20287;SDS011;10303;51.960;8.372;2022-07-23T04:11:32;3.97;;;2.77;;
20287;SDS011;10303;51.960;8.372;2022-07-23T04:13:58;3.63;;;2.67;;
20287;SDS011;10303;51.960;8.372;2022-07-23T04:16:24;3.63;;;2.87;;
20287;SDS011;10303;51.960;8.372;2022-07-23T04:18:50;5.90;;;3.33;;
20287;SDS011;10303;51.960;8.372;2022-07-23T04:21:19;6.53;;;3.30;;
20287;SDS011;10303;51.960;8.372;2022-07-23T04:23:46;4.77;;;3.47;;
20287;SDS011;10303;51.960;8.372;2022-07-23T04:26:13;3.20;;;2.53;;
20287;SDS011;10303;51.960;8.372;2022-07-23T04:28:39;2.53;;;2.33;;
20287;SDS011;10303;51.960;8.372;2022-07-23T04:31:05;3.63;;;3.07;;
20287;SDS011;10303;51.960;8.372;2022-07-23T04:33:33;3.57;;;2.70;;
20287;SDS011;10303;51.960;8.372;2022-07-23T04:36:03;3.03;;;2.70;;
20287;SDS011;10303;51.960;8.372;2022-07-23T04:38:29;4.90;;;2.80;;
20287;SDS011;10303;51.960;8.372;2022-07-23T04:40:59;5.53;;;3.33;;
20287;SDS011;10303;51.960;8.372;2022-07-23T04:43:26;2.93;;;2.63;;
20287;SDS011;10303;51.960;8.372;2022-07-23T04:45:53;3.00;;;2.70;;
20287;SDS011;10303;51.960;8.372;2022-07-23T04:48:19;2.60;;;2.40;;
20287;SDS011;10303;51.960;8.372;2022-07-23T04:50:47;4.00;;;3.23;;
20287;SDS011;10303;51.960;8.372;2022-07-23T04:53:17;2.40;;;2.00;;
20287;SDS011;10303;51.960;8.372;2022-07-23T04:55:43;3.63;;;3.13;;
20287;SDS011;10303;51.960;8.372;2022-07-23T04:58:09;4.00;;;2.47;;
20287;SDS011;10303;51.960;8.372;2022-07-23T05:00:35;2.70;;;2.50;;
20287;SDS011;10303;51.960;8.372;2022-07-23T05:03:02;2.70;;;2.50;;
20287;SDS011;10303;51.960;8.372;2022-07-23T05:05:28;2.37;;;2.03;;
20287;SDS011;10303;51.960;8.372;2022-07-23T05:08:04;2.33;;;1.90;;
20287;SDS011;10303;51.960;8.372;2022-07-23T05:10:30;2.37;;;2.17;;
20287;SDS011;10303;51.960;8.372;2022-07-23T05:12:56;3.10;;;2.70;;
20287;SDS011;10303;51.960;8.372;2022-07-23T05:15:23;3.03;;;2.43;;
20287;SDS011;10303;51.960;8.372;2022-07-23T05:17:49;3.73;;;2.10;;
20287;SDS011;10303;51.960;8.372;2022-07-23T05:20:16;2.77;;;2.10;;
20287;SDS011;10303;51.960;8.372;2022-07-23T05:22:42;3.63;;;2.50;;
20287;SDS011;10303;51.960;8.372;2022-07-23T05:25:08;2.83;;;2.63;;
20287;SDS011;10303;51.960;8.372;2022-07-23T05:27:34;3.37;;;2.43;;
20287;SDS011;10303;51.960;8.372;2022-07-23T05:30:00;3.30;;;2.60;;
20287;SDS011;10303;51.960;8.372;2022-07-23T05:32:30;2.10;;;1.90;;
20287;SDS011;10303;51.960;8.372;2022-07-23T05:35:06;5.20;;;3.23;;
20287;SDS011;10303;51.960;8.372;2022-07-23T05:37:37;2.00;;;1.87;;
20287;SDS011;10303;51.960;8.372;2022-07-23T05:40:04;3.27;;;2.43;;
20287;SDS011;10303;51.960;8.372;2022-07-23T05:42:38;3.90;;;2.83;;
20287;SDS011;10303;51.960;8.372;2022-07-23T05:45:06;2.40;;;2.20;;
20287;SDS011;10303;51.960;8.372;2022-07-23T05:47:54;2.47;;;2.27;;
20287;SDS011;10303;51.960;8.372;2022-07-23T05:50:26;1.73;;;1.63;;
20287;SDS011;10303;51.960;8.372;2022-07-23T05:52:59;2.13;;;2.00;;
20287;SDS011;10303;51.960;8.372;2022-07-23T05:55:48;3.00;;;2.37;;
20287;SDS011;10303;51.960;8.372;2022-07-23T05:58:14;2.67;;;2.10;;
20287;SDS011;10303;51.960;8.372;2022-07-23T06:00:40;2.43;;;2.23;;
20287;SDS011;10303;51.960;8.372;2022-07-23T06:03:06;4.33;;;2.23;;
20287;SDS011;10303;51.960;8.372;2022-07-23T06:05:32;3.43;;;2.00;;
20287;SDS011;10303;51.960;8.372;2022-07-23T06:07:58;2.50;;;2.30;;
20287;SDS011;10303;51.960;8.372;2022-07-23T06:10:25;2.47;;;2.27;;
20287;SDS011;10303;51.960;8.372;2022-07-23T06:12:51;2.10;;;2.00;;
20287;SDS011;10303;51.960;8.372;2022-07-23T06:15:17;3.43;;;2.50;;
20287;SDS011;10303;51.960;8.372;2022-07-23T06:17:43;3.43;;;2.10;;
20287;SDS011;10303;51.960;8.372;2022-07-23T06:20:09;2.77;;;2.30;;
20287;SDS011;10303;51.960;8.372;2022-07-23T06:22:38;4.70;;;2.17;;
20287;SDS011;10303;51.960;8.372;2022-07-23T06:25:04;2.90;;;1.87;;
20287;SDS011;10303;51.960;8.372;2022-07-23T06:27:32;2.57;;;2.10;;
20287;SDS011;10303;51.960;8.372;2022-07-23T06:29:58;2.40;;;2.20;;
20287;SDS011;10303;51.960;8.372;2022-07-23T06:32:24;2.10;;;2.00;;
20287;SDS011;10303;51.960;8.372;2022-07-23T06:34:50;2.30;;;2.10;;
20287;SDS011;10303;51.960;8.372;2022-07-23T06:37:16;7.67;;;1.90;;
20287;SDS011;10303;51.960;8.372;2022-07-23T06:39:42;2.20;;;2.10;;
20287;SDS011;10303;51.960;8.372;2022-07-23T06:42:08;3.67;;;2.37;;
20287;SDS011;10303;51.960;8.372;2022-07-23T06:44:38;2.43;;;2.23;;
20287;SDS011;10303;51.960;8.372;2022-07-23T06:47:06;3.97;;;1.90;;
20287;SDS011;10303;51.960;8.372;2022-07-23T06:49:32;2.23;;;2.03;;
20287;SDS011;10303;51.960;8.372;2022-07-23T06:51:58;3.10;;;2.67;;
20287;SDS011;10303;51.960;8.372;2022-07-23T06:54:24;4.47;;;2.67;;
20287;SDS011;10303;51.960;8.372;2022-07-23T06:56:50;3.83;;;3.43;;
20287;SDS011;10303;51.960;8.372;2022-07-23T06:59:16;2.93;;;2.70;;
20287;SDS011;10303;51.960;8.372;2022-07-23T07:01:42;2.77;;;2.57;;
20287;SDS011;10303;51.960;8.372;2022-07-23T07:04:08;2.93;;;2.70;;
20287;SDS011;10303;51.960;8.372;2022-07-23T07:06:34;3.73;;;2.83;;
20287;SDS011;10303;51.960;8.372;2022-07-23T07:09:00;2.63;;;2.43;;
20287;SDS011;10303;51.960;8.372;2022-07-23T07:11:26;3.10;;;2.90;;
20287;SDS011;10303;51.960;8.372;2022-07-23T07:13:52;6.57;;;3.43;;
20287;SDS011;10303;51.960;8.372;2022-07-23T07:16:18;3.10;;;2.90;;
20287;SDS011;10303;51.960;8.372;2022-07-23T07:18:44;4.83;;;3.93;;
20287;SDS011;10303;51.960;8.372;2022-07-23T07:21:10;4.27;;;3.27;;
20287;SDS011;10303;51.960;8.372;2022-07-23T07:23:36;5.27;;;3.13;;
20287;SDS011;10303;51.960;8.372;2022-07-23T07:26:02;3.37;;;2.93;;
20287;SDS011;10303;51.960;8.372;2022-07-23T07:28:28;2.80;;;2.53;;
20287;SDS011;10303;51.960;8.372;2022-07-23T07:30:54;3.27;;;2.90;;
20287;SDS011;10303;51.960;8.372;2022-07-23T07:33:20;6.83;;;3.13;;
20287;SDS011;10303;51.960;8.372;2022-07-23T07:35:47;3.23;;;2.60;;
20287;SDS011;10303;51.960;8.372;2022-07-23T07:38:13;2.90;;;2.70;;
20287;SDS011;10303;51.960;8.372;2022-07-23T07:40:39;5.07;;;3.80;;
20287;SDS011;10303;51.960;8.372;2022-07-23T07:43:05;4.33;;;3.27;;
20287;SDS011;10303;51.960;8.372;2022-07-23T07:45:31;4.23;;;3.83;;
20287;SDS011;10303;51.960;8.372;2022-07-23T07:47:57;3.90;;;3.50;;
20287;SDS011;10303;51.960;8.372;2022-07-23T07:50:23;4.27;;;3.57;;
20287;SDS011;10303;51.960;8.372;2022-07-23T07:52:50;5.30;;;3.10;;
20287;SDS011;10303;51.960;8.372;2022-07-23T07:55:15;3.60;;;2.57;;
20287;SDS011;10303;51.960;8.372;2022-07-23T07:57:41;3.30;;;2.50;;
20287;SDS011;10303;51.960;8.372;2022-07-23T08:00:08;3.33;;;3.03;;
20287;SDS011;10303;51.960;8.372;2022-07-23T08:05:09;4.10;;;2.37;;
20287;SDS011;10303;51.960;8.372;2022-07-23T08:07:36;3.75;;;2.55;;
20287;SDS011;10303;51.960;8.372;2022-07-23T08:10:06;2.10;;;1.95;;
20287;SDS011;10303;51.960;8.372;2022-07-23T08:15:12;3.00;;;2.67;;
20287;SDS011;10303;51.960;8.372;2022-07-23T08:17:41;3.50;;;3.20;;
20287;SDS011;10303;51.960;8.372;2022-07-23T08:20:09;3.97;;;2.70;;
20287;SDS011;10303;51.960;8.372;2022-07-23T08:22:45;3.03;;;2.83;;
20287;SDS011;10303;51.960;8.372;2022-07-23T08:25:15;3.45;;;3.13;;
20287;SDS011;10303;51.960;8.372;2022-07-23T08:27:46;6.13;;;2.72;;
20287;SDS011;10303;51.960;8.372;2022-07-23T08:30:12;3.63;;;2.60;;
20287;SDS011;10303;51.960;8.372;2022-07-23T08:32:50;5.43;;;3.50;;
20287;SDS011;10303;51.960;8.372;2022-07-23T08:35:18;3.05;;;2.75;;
20287;SDS011;10303;51.960;8.372;2022-07-23T08:37:53;2.70;;;2.50;;
20287;SDS011;10303;51.960;8.372;2022-07-23T08:40:20;2.30;;;2.20;;
20287;SDS011;10303;51.960;8.372;2022-07-23T08:42:47;5.10;;;2.80;;
20287;SDS011;10303;51.960;8.372;2022-07-23T08:45:16;2.10;;;2.00;;
20287;SDS011;10303;51.960;8.372;2022-07-23T08:47:49;2.40;;;2.20;;
20287;SDS011;10303;51.960;8.372;2022-07-23T08:50:16;4.75;;;2.15;;
20287;SDS011;10303;51.960;8.372;2022-07-23T08:52:43;2.22;;;2.13;;
20287;SDS011;10303;51.960;8.372;2022-07-23T08:55:09;2.60;;;2.40;;
20287;SDS011;10303;51.960;8.372;2022-07-23T08:57:35;3.40;;;2.38;;
20287;SDS011;10303;51.960;8.372;2022-07-23T09:00:02;1.77;;;1.67;;
20287;SDS011;10303;51.960;8.372;2022-07-23T09:02:34;2.53;;;1.58;;
20287;SDS011;10303;51.960;8.372;2022-07-23T09:05:06;2.95;;;1.92;;
20287;SDS011;10303;51.960;8.372;2022-07-23T09:07:33;2.65;;;2.13;;
20287;SDS011;10303;51.960;8.372;2022-07-23T09:10:06;2.05;;;1.83;;
20287;SDS011;10303;51.960;8.372;2022-07-23T09:12:36;2.38;;;1.63;;
20287;SDS011;10303;51.960;8.372;2022-07-23T09:15:04;2.13;;;2.03;;
20287;SDS011;10303;51.960;8.372;2022-07-23T09:17:40;1.88;;;1.48;;
20287;SDS011;10303;51.960;8.372;2022-07-23T09:20:17;1.75;;;1.50;;
20287;SDS011;10303;51.960;8.372;2022-07-23T09:22:46;2.20;;;1.70;;
20287;SDS011;10303;51.960;8.372;2022-07-23T09:25:15;1.65;;;1.55;;
20287;SDS011;10303;51.960;8.372;2022-07-23T09:30:20;1.67;;;1.58;;
20287;SDS011;10303;51.960;8.372;2022-07-23T09:33:23;1.63;;;1.52;;
20287;SDS011;10303;51.960;8.372;2022-07-23T09:35:44;1.67;;;1.58;;
20287;SDS011;10303;51.960;8.372;2022-07-23T09:38:15;2.60;;;1.92;;
20287;SDS011;10303;51.960;8.372;2022-07-23T09:40:43;3.53;;;2.72;;
20287;SDS011;10303;51.960;8.372;2022-07-23T09:43:10;2.03;;;1.83;;
20287;SDS011;10303;51.960;8.372;2022-07-23T09:45:37;2.20;;;2.00;;
20287;SDS011;10303;51.960;8.372;2022-07-23T09:48:12;2.60;;;2.38;;
20287;SDS011;10303;51.960;8.372;2022-07-23T09:50:42;1.92;;;1.83;;
20287;SDS011;10303;51.960;8.372;2022-07-23T09:53:09;1.70;;;1.60;;
20287;SDS011;10303;51.960;8.372;2022-07-23T09:55:51;2.05;;;1.95;;
20287;SDS011;10303;51.960;8.372;2022-07-23T09:58:23;1.63;;;1.52;;
20287;SDS011;10303;51.960;8.372;2022-07-23T10:00:52;1.55;;;1.45;;
20287;SDS011;10303;51.960;8.372;2022-07-23T10:03:19;2.20;;;1.77;;
20287;SDS011;10303;51.960;8.372;2022-07-23T10:06:09;2.47;;;2.28;;
20287;SDS011;10303;51.960;8.372;2022-07-23T10:09:07;2.35;;;2.15;;
20287;SDS011;10303;51.960;8.372;2022-07-23T10:12:13;2.08;;;1.80;;
20287;SDS011;10303;51.960;8.372;2022-07-23T10:14:58;9.85;;;2.72;;
20287;SDS011;10303;51.960;8.372;2022-07-23T10:17:25;2.00;;;1.90;;
20287;SDS011;10303;51.960;8.372;2022-07-23T10:19:54;1.63;;;1.42;;
20287;SDS011;10303;51.960;8.372;2022-07-23T10:22:31;2.00;;;1.90;;
20287;SDS011;10303;51.960;8.372;2022-07-23T10:39:08;4.22;;;1.20;;
20287;SDS011;10303;51.960;8.372;2022-07-23T10:41:47;2.08;;;1.58;;
20287;SDS011;10303;51.960;8.372;2022-07-23T10:44:17;2.30;;;1.38;;
20287;SDS011;10303;51.960;8.372;2022-07-23T10:46:55;2.00;;;1.85;;
20287;SDS011;10303;51.960;8.372;2022-07-23T10:49:35;1.52;;;1.42;;
20287;SDS011;10303;51.960;8.372;2022-07-23T10:54:49;1.95;;;1.77;;
20287;SDS011;10303;51.960;8.372;2022-07-23T10:57:26;1.90;;;1.67;;
20287;SDS011;10303;51.960;8.372;2022-07-23T11:02:34;2.05;;;1.50;;
20287;SDS011;10303;51.960;8.372;2022-07-23T11:06:02;1.65;;;1.55;;
20287;SDS011;10303;51.960;8.372;2022-07-23T11:08:10;1.90;;;1.63;;
20287;SDS011;10303;51.960;8.372;2022-07-23T11:10:49;1.40;;;1.30;;
20287;SDS011;10303;51.960;8.372;2022-07-23T11:13:36;2.10;;;1.40;;
20287;SDS011;10303;51.960;8.372;2022-07-23T11:16:05;1.40;;;1.30;;
20287;SDS011;10303;51.960;8.372;2022-07-23T11:31:54;1.90;;;1.80;;
20287;SDS011;10303;51.960;8.372;2022-07-23T11:34:34;1.25;;;1.13;;
20287;SDS011;10303;51.960;8.372;2022-07-23T11:37:05;1.00;;;1.00;;
20287;SDS011;10303;51.960;8.372;2022-07-23T11:39:33;2.55;;;1.75;;
20287;SDS011;10303;51.960;8.372;2022-07-23T11:42:01;3.13;;;1.88;;
20287;SDS011;10303;51.960;8.372;2022-07-23T11:44:33;2.60;;;1.20;;
20287;SDS011;10303;51.960;8.372;2022-07-23T11:47:02;1.98;;;1.10;;
20287;SDS011;10303;51.960;8.372;2022-07-23T11:49:34;1.70;;;1.23;;
20287;SDS011;10303;51.960;8.372;2022-07-23T11:52:05;1.15;;;1.00;;
20287;SDS011;10303;51.960;8.372;2022-07-23T11:54:37;0.98;;;0.98;;
20287;SDS011;10303;51.960;8.372;2022-07-23T11:57:40;1.10;;;1.00;;
20287;SDS011;10303;51.960;8.372;2022-07-23T12:00:14;0.70;;;0.70;;
20287;SDS011;10303;51.960;8.372;2022-07-23T12:02:47;0.80;;;0.80;;
20287;SDS011;10303;51.960;8.372;2022-07-23T12:05:20;1.10;;;1.00;;
20287;SDS011;10303;51.960;8.372;2022-07-23T12:07:50;2.03;;;0.95;;
20287;SDS011;10303;51.960;8.372;2022-07-23T12:10:23;1.00;;;0.88;;
20287;SDS011;10303;51.960;8.372;2022-07-23T12:13:04;2.05;;;0.93;;
20287;SDS011;10303;51.960;8.372;2022-07-23T12:15:40;2.60;;;0.60;;
20287;SDS011;10303;51.960;8.372;2022-07-23T12:18:14;1.63;;;1.10;;
20287;SDS011;10303;51.960;8.372;2022-07-23T12:20:56;1.52;;;1.00;;
20287;SDS011;10303;51.960;8.372;2022-07-23T12:23:29;3.65;;;1.02;;
20287;SDS011;10303;51.960;8.372;2022-07-23T12:25:55;0.90;;;0.90;;
20287;SDS011;10303;51.960;8.372;2022-07-23T12:28:28;1.08;;;1.00;;
20287;SDS011;10303;51.960;8.372;2022-07-23T12:31:02;0.80;;;0.80;;
20287;SDS011;10303;51.960;8.372;2022-07-23T12:33:30;1.33;;;0.90;;
20287;SDS011;10303;51.960;8.372;2022-07-23T12:36:06;1.58;;;1.00;;
20287;SDS011;10303;51.960;8.372;2022-07-23T12:38:46;0.82;;;0.82;;
20287;SDS011;10303;51.960;8.372;2022-07-23T12:41:14;0.77;;;0.77;;
20287;SDS011;10303;51.960;8.372;2022-07-23T12:43:43;0.88;;;0.88;;
20287;SDS011;10303;51.960;8.372;2022-07-23T12:53:47;1.45;;;0.70;;
20287;SDS011;10303;51.960;8.372;2022-07-23T12:56:17;4.00;;;0.73;;
20287;SDS011;10303;51.960;8.372;2022-07-23T12:58:57;0.80;;;0.80;;
20287;SDS011;10303;51.960;8.372;2022-07-23T13:01:34;0.98;;;0.70;;
20287;SDS011;10303;51.960;8.372;2022-07-23T13:04:10;0.60;;;0.52;;
20287;SDS011;10303;51.960;8.372;2022-07-23T13:06:49;0.65;;;0.65;;
20287;SDS011;10303;51.960;8.372;2022-07-23T13:09:19;1.10;;;0.80;;
20287;SDS011;10303;51.960;8.372;2022-07-23T13:11:51;15.65;;;0.80;;
20287;SDS011;10303;51.960;8.372;2022-07-23T13:14:19;0.77;;;0.77;;
20287;SDS011;10303;51.960;8.372;2022-07-23T13:16:46;1.08;;;1.00;;
20287;SDS011;10303;51.960;8.372;2022-07-23T13:19:18;0.65;;;0.60;;
20287;SDS011;10303;51.960;8.372;2022-07-23T13:21:47;0.80;;;0.60;;
20287;SDS011;10303;51.960;8.372;2022-07-23T13:24:13;1.05;;;0.85;;
20287;SDS011;10303;51.960;8.372;2022-07-23T13:26:39;0.57;;;0.57;;
20287;SDS011;10303;51.960;8.372;2022-07-23T13:29:06;0.82;;;0.82;;
20287;SDS011;10303;51.960;8.372;2022-07-23T13:31:34;0.80;;;0.80;;
20287;SDS011;10303;51.960;8.372;2022-07-23T13:34:02;0.63;;;0.63;;
20287;SDS011;10303;51.960;8.372;2022-07-23T13:36:29;0.63;;;0.63;;
20287;SDS011;10303;51.960;8.372;2022-07-23T13:38:55;1.08;;;0.70;;
20287;SDS011;10303;51.960;8.372;2022-07-23T13:41:21;3.67;;;0.70;;
20287;SDS011;10303;51.960;8.372;2022-07-23T13:43:47;0.88;;;0.88;;
20287;SDS011;10303;51.960;8.372;2022-07-23T13:46:13;1.05;;;0.80;;
20287;SDS011;10303;51.960;8.372;2022-07-23T13:48:39;0.95;;;0.65;;
20287;SDS011;10303;51.960;8.372;2022-07-23T13:51:04;1.30;;;0.50;;
20287;SDS011;10303;51.960;8.372;2022-07-23T13:53:32;0.70;;;0.70;;
20287;SDS011;10303;51.960;8.372;2022-07-23T13:55:58;0.80;;;0.70;;
20287;SDS011;10303;51.960;8.372;2022-07-23T13:58:24;0.50;;;0.50;;
20287;SDS011;10303;51.960;8.372;2022-07-23T14:00:51;0.60;;;0.60;;
20287;SDS011;10303;51.960;8.372;2022-07-23T14:03:18;0.95;;;0.93;;
20287;SDS011;10303;51.960;8.372;2022-07-23T14:05:50;0.52;;;0.52;;
20287;SDS011;10303;51.960;8.372;2022-07-23T14:08:18;0.75;;;0.75;;
20287;SDS011;10303;51.960;8.372;2022-07-23T14:10:44;0.95;;;0.70;;
20287;SDS011;10303;51.960;8.372;2022-07-23T14:13:10;3.70;;;0.80;;
20287;SDS011;10303;51.960;8.372;2022-07-23T14:15:36;0.60;;;0.60;;
20287;SDS011;10303;51.960;8.372;2022-07-23T14:18:05;1.15;;;1.00;;
20287;SDS011;10303;51.960;8.372;2022-07-23T14:20:32;0.70;;;0.70;;
20287;SDS011;10303;51.960;8.372;2022-07-23T14:22:58;1.30;;;0.70;;
20287;SDS011;10303;51.960;8.372;2022-07-23T14:25:25;1.60;;;0.90;;
20287;SDS011;10303;51.960;8.372;2022-07-23T14:27:52;2.50;;;0.70;;
20287;SDS011;10303;51.960;8.372;2022-07-23T14:30:18;2.25;;;0.90;;
20287;SDS011;10303;51.960;8.372;2022-07-23T14:32:44;0.60;;;0.60;;
20287;SDS011;10303;51.960;8.372;2022-07-23T14:35:10;1.30;;;0.80;;
20287;SDS011;10303;51.960;8.372;2022-07-23T14:37:36;2.85;;;0.90;;
20287;SDS011;10303;51.960;8.372;2022-07-23T14:40:04;0.50;;;0.50;;
20287;SDS011;10303;51.960;8.372;2022-07-23T14:42:30;0.80;;;0.80;;
20287;SDS011;10303;51.960;8.372;2022-07-23T14:44:57;0.95;;;0.70;;
20287;SDS011;10303;51.960;8.372;2022-07-23T14:47:23;0.80;;;0.80;;
20287;SDS011;10303;51.960;8.372;2022-07-23T14:49:49;0.90;;;0.90;;
20287;SDS011;10303;51.960;8.372;2022-07-23T14:52:15;0.90;;;0.90;;
20287;SDS011;10303;51.960;8.372;2022-07-23T14:54:41;2.85;;;1.08;;
20287;SDS011;10303;51.960;8.372;2022-07-23T14:57:07;0.90;;;0.90;;
20287;SDS011;10303;51.960;8.372;2022-07-23T14:59:34;0.82;;;0.82;;
20287;SDS011;10303;51.960;8.372;2022-07-23T15:02:00;1.35;;;1.00;;
20287;SDS011;10303;51.960;8.372;2022-07-23T15:04:26;3.22;;;0.80;;
20287;SDS011;10303;51.960;8.372;2022-07-23T15:06:52;1.00;;;0.90;;
20287;SDS011;10303;51.960;8.372;2022-07-23T15:09:18;0.80;;;0.80;;
20287;SDS011;10303;51.960;8.372;2022-07-23T15:11:45;1.83;;;1.10;;
20287;SDS011;10303;51.960;8.372;2022-07-23T15:14:11;1.65;;;1.10;;
20287;SDS011;10303;51.960;8.372;2022-07-23T15:16:37;1.00;;;1.00;;
20287;SDS011;10303;51.960;8.372;2022-07-23T15:19:03;1.20;;;0.85;;
20287;SDS011;10303;51.960;8.372;2022-07-23T15:21:30;0.80;;;0.80;;
20287;SDS011;10303;51.960;8.372;2022-07-23T15:23:56;0.80;;;0.80;;
20287;SDS011;10303;51.960;8.372;2022-07-23T15:26:24;9.20;;;1.48;;
20287;SDS011;10303;51.960;8.372;2022-07-23T15:28:52;1.50;;;0.90;;
20287;SDS011;10303;51.960;8.372;2022-07-23T15:31:18;0.77;;;0.77;;
20287;SDS011;10303;51.960;8.372;2022-07-23T15:33:44;1.25;;;0.70;;
20287;SDS011;10303;51.960;8.372;2022-07-23T15:36:10;1.90;;;1.23;;
20287;SDS011;10303;51.960;8.372;2022-07-23T15:38:36;1.42;;;0.70;;
20287;SDS011;10303;51.960;8.372;2022-07-23T15:41:02;0.88;;;0.70;;
20287;SDS011;10303;51.960;8.372;2022-07-23T15:43:28;1.77;;;1.00;;
20287;SDS011;10303;51.960;8.372;2022-07-23T15:45:56;0.70;;;0.68;;